createdAt,value
2017-09-19T00:01:50.561Z,11.40
2017-09-19T00:04:17.988Z,11.50
2017-09-19T00:06:45.402Z,11.40
2017-09-19T00:09:13.608Z,11.40
2017-09-19T00:11:41.076Z,11.40
2017-09-19T00:14:08.539Z,11.30
2017-09-19T00:16:35.947Z,11.30
2017-09-19T00:19:04.132Z,11.40
2017-09-19T00:21:32.348Z,11.40
2017-09-19T00:23:59.743Z,11.40
2017-09-19T00:26:27.163Z,11.50
2017-09-19T00:28:54.604Z,11.50
2017-09-19T00:31:22.023Z,11.40
2017-09-19T00:33:50.214Z,11.30
2017-09-19T00:36:17.638Z,11.30
2017-09-19T00:38:45.068Z,11.30
2017-09-19T00:41:12.483Z,11.30
2017-09-19T00:43:39.959Z,11.30
2017-09-19T00:46:07.395Z,11.20
2017-09-19T00:48:34.814Z,11.20
2017-09-19T00:51:03.006Z,11.10
2017-09-19T00:53:31.200Z,11.20
2017-09-19T00:55:58.619Z,11.20
2017-09-19T00:58:26.127Z,11.20
2017-09-19T01:00:53.557Z,11.20
2017-09-19T01:03:21.739Z,11.20
2017-09-19T01:05:49.158Z,11.20
2017-09-19T01:08:16.572Z,11.30
2017-09-19T01:10:44.028Z,11.30
2017-09-19T01:13:11.448Z,11.20
2017-09-19T01:15:39.659Z,11.20
2017-09-19T01:18:07.093Z,11.20
2017-09-19T01:20:34.515Z,11.10
2017-09-19T01:23:02.028Z,11.10
2017-09-19T01:25:29.449Z,11.10
2017-09-19T01:27:57.639Z,10.90
2017-09-19T01:30:25.716Z,10.90
2017-09-19T01:32:53.138Z,10.90
2017-09-19T01:35:20.644Z,10.90
2017-09-19T01:37:48.077Z,11.00
2017-09-19T01:40:17.332Z,11.00
2017-09-19T01:42:44.747Z,11.00
2017-09-19T01:45:12.175Z,10.90
2017-09-19T01:47:40.355Z,10.80
2017-09-19T01:50:07.787Z,10.80
2017-09-19T01:52:35.198Z,10.80
2017-09-19T01:55:02.659Z,10.80
2017-09-19T01:57:30.223Z,10.70
2017-09-19T01:59:57.639Z,10.60
2017-09-19T02:02:25.066Z,10.60
2017-09-19T02:04:53.987Z,10.70
2017-09-19T02:07:21.511Z,10.70
2017-09-19T02:09:49.028Z,10.70
2017-09-19T02:12:16.483Z,10.60
2017-09-19T02:14:43.947Z,10.60
2017-09-19T02:17:11.359Z,10.60
2017-09-19T02:19:39.539Z,10.70
2017-09-19T02:22:07.719Z,10.80
2017-09-19T02:24:35.143Z,10.80
2017-09-19T02:27:02.656Z,10.90
2017-09-19T02:29:30.066Z,10.80
2017-09-19T02:31:57.489Z,10.90
2017-09-19T02:34:24.927Z,10.90
2017-09-19T02:36:52.343Z,10.90
2017-09-19T02:39:20.556Z,11.00
2017-09-19T02:41:47.977Z,10.90
2017-09-19T02:44:16.185Z,11.00
2017-09-19T02:46:43.604Z,11.00
2017-09-19T02:49:11.795Z,10.90
2017-09-19T02:51:39.223Z,10.90
2017-09-19T02:54:07.419Z,10.90
2017-09-19T02:56:35.603Z,10.90
2017-09-19T02:59:03.023Z,10.90
2017-09-19T03:01:30.955Z,10.80
2017-09-19T03:03:58.484Z,10.80
2017-09-19T03:06:25.901Z,10.90
2017-09-19T03:08:53.315Z,10.90
2017-09-19T03:11:20.726Z,10.80
2017-09-19T03:13:48.911Z,10.90
2017-09-19T03:16:17.732Z,10.90
2017-09-19T03:18:45.145Z,10.80
2017-09-19T03:21:13.358Z,10.80
2017-09-19T03:23:40.762Z,10.80
2017-09-19T03:26:08.166Z,10.80
2017-09-19T03:28:35.581Z,10.80
2017-09-19T03:31:03.761Z,10.90
2017-09-19T03:33:31.972Z,10.80
2017-09-19T03:35:59.378Z,10.80
2017-09-19T03:38:27.594Z,10.80
2017-09-19T03:40:55.011Z,10.80
2017-09-19T03:43:23.195Z,10.90
2017-09-19T03:45:51.375Z,11.00
2017-09-19T03:48:18.861Z,10.90
2017-09-19T03:50:46.276Z,11.00
2017-09-19T03:53:13.774Z,10.90
2017-09-19T03:55:41.187Z,11.00
2017-09-19T03:58:09.374Z,11.00
2017-09-19T04:00:37.555Z,11.00
2017-09-19T04:03:04.970Z,11.00
2017-09-19T04:05:34.847Z,11.00
2017-09-19T04:08:02.259Z,11.00
2017-09-19T04:10:30.474Z,10.90
2017-09-19T04:12:57.893Z,10.90
2017-09-19T04:15:26.076Z,11.00
2017-09-19T04:17:54.248Z,10.90
2017-09-19T04:20:22.907Z,10.90
2017-09-19T04:22:50.322Z,10.90
2017-09-19T04:25:17.770Z,10.90
2017-09-19T04:27:45.961Z,11.00
2017-09-19T04:30:13.384Z,11.00
2017-09-19T04:32:40.817Z,11.00
2017-09-19T04:35:08.215Z,10.90
2017-09-19T04:37:35.631Z,10.90
2017-09-19T04:40:03.815Z,11.00
2017-09-19T04:42:31.990Z,11.10
2017-09-19T04:44:59.409Z,11.10
2017-09-19T04:47:26.932Z,11.10
2017-09-19T04:49:54.353Z,11.20
2017-09-19T04:52:22.540Z,11.20
2017-09-19T04:54:49.954Z,11.20
2017-09-19T04:57:17.474Z,11.20
2017-09-19T04:59:44.893Z,11.20
2017-09-19T05:02:13.088Z,11.20
2017-09-19T05:04:40.495Z,11.20
2017-09-19T05:07:08.416Z,11.20
2017-09-19T05:09:35.915Z,11.20
2017-09-19T05:12:03.438Z,11.10
2017-09-19T05:14:30.859Z,11.20
2017-09-19T05:16:59.041Z,11.10
2017-09-19T05:19:27.243Z,11.00
2017-09-19T05:21:54.663Z,11.00
2017-09-19T05:24:22.839Z,11.00
2017-09-19T05:26:51.054Z,11.10
2017-09-19T05:31:58.050Z,11.00
2017-09-19T05:34:25.478Z,11.00
2017-09-19T05:36:52.905Z,11.00
2017-09-19T05:39:20.521Z,11.00
2017-09-19T05:41:47.914Z,11.00
2017-09-19T05:44:15.347Z,11.00
2017-09-19T05:46:42.756Z,11.10
2017-09-19T05:49:10.184Z,11.10
2017-09-19T05:51:39.115Z,11.20
2017-09-19T05:54:06.844Z,11.20
2017-09-19T05:56:34.664Z,11.10
2017-09-19T05:59:02.083Z,11.20
2017-09-19T06:01:30.281Z,11.20
2017-09-19T06:03:57.722Z,11.20
2017-09-19T06:06:25.899Z,11.30
2017-09-19T06:09:05.069Z,11.30
2017-09-19T06:11:32.536Z,11.40
2017-09-19T06:13:59.950Z,11.40
2017-09-19T06:16:27.367Z,11.40
2017-09-19T06:18:54.872Z,11.40
2017-09-19T06:21:22.287Z,11.50
2017-09-19T06:23:50.482Z,11.40
2017-09-19T06:26:17.900Z,11.40
2017-09-19T06:28:45.414Z,11.30
2017-09-19T06:31:12.827Z,11.40
2017-09-19T06:33:41.019Z,11.30
2017-09-19T06:36:09.239Z,11.30
2017-09-19T06:38:36.663Z,11.30
2017-09-19T06:41:04.139Z,11.30
2017-09-19T06:43:31.558Z,11.50
2017-09-19T06:45:59.835Z,11.60
2017-09-19T06:48:28.023Z,11.60
2017-09-19T06:50:55.472Z,11.60
2017-09-19T06:53:23.649Z,11.70
2017-09-19T06:55:51.064Z,11.70
2017-09-19T06:58:19.995Z,11.80
2017-09-19T07:00:47.416Z,11.80
2017-09-19T07:03:16.573Z,11.90
2017-09-19T07:05:43.986Z,11.90
2017-09-19T07:08:12.177Z,12.10
2017-09-19T07:10:39.662Z,12.10
2017-09-19T07:13:07.078Z,12.10
2017-09-19T07:15:34.507Z,12.20
2017-09-19T07:18:01.924Z,12.10
2017-09-19T07:20:29.335Z,12.20
2017-09-19T07:22:57.559Z,12.20
2017-09-19T07:25:24.978Z,12.20
2017-09-19T07:27:53.176Z,12.30
2017-09-19T07:30:20.631Z,12.30
2017-09-19T07:32:48.051Z,12.30
2017-09-19T07:35:16.239Z,12.40
2017-09-19T07:37:44.456Z,12.40
2017-09-19T07:40:12.291Z,12.40
2017-09-19T07:42:39.763Z,12.40
2017-09-19T07:45:07.187Z,12.40
2017-09-19T07:47:35.367Z,12.50
2017-09-19T07:50:02.856Z,12.50
2017-09-19T07:52:30.250Z,12.50
2017-09-19T07:54:57.667Z,12.60
2017-09-19T07:57:25.115Z,12.60
2017-09-19T07:59:52.527Z,12.60
2017-09-19T08:02:20.751Z,12.60
2017-09-19T08:04:48.188Z,12.60
2017-09-19T08:07:15.665Z,12.50
2017-09-19T08:09:43.101Z,12.60
2017-09-19T08:12:10.570Z,12.60
2017-09-19T08:14:38.032Z,12.60
2017-09-19T08:17:05.442Z,12.60
2017-09-19T08:19:33.665Z,12.60
2017-09-19T08:22:01.133Z,12.60
2017-09-19T08:24:28.591Z,12.60
2017-09-19T08:26:56.018Z,12.60
2017-09-19T08:29:23.486Z,12.60
2017-09-19T08:31:50.891Z,12.70
2017-09-19T08:34:19.076Z,12.80
2017-09-19T08:36:47.301Z,12.80
2017-09-19T08:39:14.737Z,12.80
2017-09-19T08:41:43.075Z,12.90
2017-09-19T08:44:10.515Z,13.00
2017-09-19T08:46:37.937Z,13.10
2017-09-19T08:49:05.349Z,13.20
2017-09-19T08:51:33.540Z,13.20
2017-09-19T08:54:00.954Z,13.20
2017-09-19T08:56:28.367Z,13.20
2017-09-19T08:58:55.833Z,13.10
2017-09-19T09:01:23.250Z,13.20
2017-09-19T09:03:51.434Z,13.20
2017-09-19T09:06:19.659Z,13.30
2017-09-19T09:08:47.092Z,13.30
2017-09-19T09:11:14.507Z,13.50
2017-09-19T09:13:42.709Z,13.70
2017-09-19T09:16:10.125Z,13.70
2017-09-19T09:18:37.552Z,13.80
2017-09-19T09:21:04.987Z,13.80
2017-09-19T09:23:32.398Z,13.70
2017-09-19T09:25:59.817Z,13.90
2017-09-19T09:28:27.262Z,14.00
2017-09-19T09:30:54.711Z,14.10
2017-09-19T09:33:22.127Z,14.10
2017-09-19T09:35:50.320Z,14.10
2017-09-19T09:38:18.504Z,14.00
2017-09-19T09:40:45.924Z,14.00
2017-09-19T09:43:15.385Z,14.00
2017-09-19T09:45:42.791Z,14.00
2017-09-19T09:48:10.983Z,14.00
2017-09-19T09:50:38.400Z,14.00
2017-09-19T09:53:05.817Z,14.00
2017-09-19T09:55:33.231Z,13.90
2017-09-19T09:58:00.664Z,13.90
2017-09-19T10:00:28.085Z,13.90
2017-09-19T10:02:55.538Z,13.90
2017-09-19T10:05:23.016Z,14.00
2017-09-19T10:07:50.451Z,14.10
2017-09-19T10:10:17.860Z,14.20
2017-09-19T10:12:46.089Z,14.30
2017-09-19T10:15:13.539Z,14.30
2017-09-19T10:17:40.955Z,14.40
2017-09-19T10:20:09.137Z,14.60
2017-09-19T10:22:37.364Z,14.70
2017-09-19T10:25:04.778Z,14.70
2017-09-19T10:27:32.819Z,14.70
2017-09-19T10:30:01.050Z,14.90
2017-09-19T10:32:28.459Z,14.90
2017-09-19T10:34:56.647Z,15.50
2017-09-19T10:37:24.855Z,15.50
2017-09-19T10:39:52.274Z,15.50
2017-09-19T10:42:20.460Z,16.10
2017-09-19T10:44:47.871Z,16.10
2017-09-19T10:47:16.798Z,16.10
2017-09-19T10:49:44.975Z,16.30
2017-09-19T10:52:12.998Z,16.30
2017-09-19T10:54:40.420Z,16.70
2017-09-19T10:57:07.863Z,16.90
2017-09-19T10:59:35.283Z,17.20
2017-09-19T11:02:03.494Z,17.30
2017-09-19T11:04:30.915Z,16.90
2017-09-19T11:06:58.325Z,16.50
2017-09-19T11:09:25.739Z,16.10
2017-09-19T11:11:53.937Z,15.70
2017-09-19T11:14:21.342Z,15.60
2017-09-19T11:16:48.863Z,15.60
2017-09-19T11:19:16.291Z,15.80
2017-09-19T11:21:44.535Z,16.80
2017-09-19T11:24:11.959Z,16.80
2017-09-19T11:26:39.378Z,17.40
2017-09-19T11:29:07.559Z,18.10
2017-09-19T11:31:35.757Z,18.60
2017-09-19T11:34:03.195Z,18.60
2017-09-19T11:36:30.583Z,18.50
2017-09-19T11:38:58.033Z,18.20
2017-09-19T11:41:25.444Z,17.80
2017-09-19T11:43:53.636Z,17.90
2017-09-19T11:46:21.046Z,17.90
2017-09-19T11:48:48.454Z,18.00
2017-09-19T11:51:15.878Z,18.30
2017-09-19T11:53:44.055Z,21.50
2017-09-19T11:56:12.233Z,23.00
2017-09-19T11:58:40.419Z,23.80
2017-09-19T12:01:07.955Z,23.80
2017-09-19T12:03:36.139Z,24.60
2017-09-19T12:06:04.320Z,24.10
2017-09-19T12:08:32.530Z,24.20
2017-09-19T12:10:59.947Z,24.10
2017-09-19T12:13:28.149Z,23.70
2017-09-19T12:15:55.558Z,23.70
2017-09-19T12:18:23.783Z,22.00
2017-09-19T12:20:51.179Z,21.90
2017-09-19T12:23:18.691Z,21.20
2017-09-19T12:25:46.122Z,20.20
2017-09-19T12:28:13.551Z,19.60
2017-09-19T12:30:40.960Z,19.20
2017-09-19T12:33:08.383Z,18.70
2017-09-19T12:35:36.916Z,17.90
2017-09-19T12:38:04.331Z,17.80
2017-09-19T12:40:31.819Z,17.60
2017-09-19T12:42:59.242Z,17.50
2017-09-19T12:45:26.654Z,17.40
2017-09-19T12:47:54.075Z,17.40
2017-09-19T12:50:21.512Z,18.30
2017-09-19T12:52:48.994Z,20.20
2017-09-19T12:55:16.391Z,21.80
2017-09-19T12:57:43.827Z,23.10
2017-09-19T13:00:11.235Z,25.20
2017-09-19T13:02:38.664Z,26.50
2017-09-19T13:05:06.091Z,26.30
2017-09-19T13:07:33.907Z,24.80
2017-09-19T13:10:02.111Z,22.70
2017-09-19T13:12:29.571Z,22.70
2017-09-19T13:14:56.987Z,22.20
2017-09-19T13:17:25.175Z,20.90
2017-09-19T13:19:52.591Z,20.90
2017-09-19T13:22:20.003Z,21.90
2017-09-19T13:24:47.433Z,23.10
2017-09-19T13:27:15.618Z,21.40
2017-09-19T13:29:43.031Z,21.40
2017-09-19T13:32:22.345Z,20.40
2017-09-19T13:34:49.762Z,19.50
2017-09-19T13:37:17.241Z,18.60
2017-09-19T13:39:44.738Z,18.00
2017-09-19T13:42:12.974Z,17.20
2017-09-19T13:44:40.423Z,17.10
2017-09-19T13:47:07.855Z,16.80
2017-09-19T13:49:36.027Z,16.40
2017-09-19T13:52:04.211Z,16.30
2017-09-19T13:54:31.630Z,16.20
2017-09-19T13:56:59.060Z,16.20
2017-09-19T13:59:26.502Z,16.10
2017-09-19T14:01:53.913Z,16.10
2017-09-19T14:04:22.091Z,16.00
2017-09-19T14:06:50.311Z,16.00
2017-09-19T14:09:17.731Z,15.90
2017-09-19T14:11:45.932Z,15.90
2017-09-19T14:14:13.391Z,15.80
2017-09-19T14:16:40.802Z,15.80
2017-09-19T14:19:08.982Z,15.80
2017-09-19T14:21:37.194Z,15.90
2017-09-19T14:24:04.603Z,15.90
2017-09-19T14:26:32.820Z,16.00
2017-09-19T14:29:00.235Z,16.00
2017-09-19T14:31:28.418Z,16.10
2017-09-19T14:33:56.624Z,16.10
2017-09-19T14:36:24.030Z,16.10
2017-09-19T14:38:52.259Z,16.40
2017-09-19T14:41:19.719Z,16.40
2017-09-19T14:43:47.152Z,16.60
2017-09-19T14:46:14.570Z,16.80
2017-09-19T14:48:41.987Z,17.20
2017-09-19T14:51:09.437Z,17.60
2017-09-19T14:53:36.852Z,17.70
2017-09-19T14:56:05.029Z,19.10
2017-09-19T14:58:33.208Z,19.90
2017-09-19T15:01:02.104Z,20.30
2017-09-19T15:03:30.282Z,20.60
2017-09-19T15:05:57.708Z,20.60
2017-09-19T15:08:25.663Z,21.60
2017-09-19T15:10:53.075Z,22.40
2017-09-19T15:13:20.515Z,22.90
2017-09-19T15:15:47.939Z,23.40
2017-09-19T15:18:16.106Z,24.00
2017-09-19T15:20:45.039Z,24.30
2017-09-19T15:23:12.620Z,24.40
2017-09-19T15:25:40.011Z,25.10
2017-09-19T15:28:08.132Z,25.70
2017-09-19T15:30:35.540Z,25.30
2017-09-19T15:33:03.057Z,24.30
2017-09-19T15:35:30.536Z,23.50
2017-09-19T15:37:57.940Z,22.70
2017-09-19T15:40:26.148Z,21.40
2017-09-19T15:42:53.573Z,21.30
2017-09-19T15:45:22.443Z,20.50
2017-09-19T15:47:49.868Z,20.50
2017-09-19T15:50:17.305Z,20.10
2017-09-19T15:52:44.714Z,19.80
2017-09-19T15:55:12.919Z,20.20
2017-09-19T15:57:40.401Z,20.10
2017-09-19T16:00:07.833Z,20.60
2017-09-19T16:02:36.004Z,20.70
2017-09-19T16:05:03.422Z,20.70
2017-09-19T16:07:30.975Z,21.00
2017-09-19T16:09:58.332Z,21.50
2017-09-19T16:12:25.758Z,21.70
2017-09-19T16:14:53.163Z,22.00
2017-09-19T16:17:21.339Z,21.80
2017-09-19T16:19:49.527Z,21.30
2017-09-19T16:22:16.952Z,21.30
2017-09-19T16:24:45.125Z,20.30
2017-09-19T16:27:14.076Z,19.60
2017-09-19T16:29:41.495Z,19.60
2017-09-19T16:32:10.008Z,19.10
2017-09-19T16:34:37.407Z,19.00
2017-09-19T16:37:04.832Z,18.70
2017-09-19T16:39:32.247Z,18.40
2017-09-19T16:41:59.675Z,18.00
2017-09-19T16:44:27.395Z,17.80
2017-09-19T16:46:55.054Z,17.60
2017-09-19T16:49:22.473Z,17.50
2017-09-19T16:51:50.642Z,17.20
2017-09-19T16:54:18.822Z,17.10
2017-09-19T16:56:47.023Z,17.00
2017-09-19T16:59:14.439Z,17.00
2017-09-19T17:01:42.619Z,17.00
2017-09-19T17:04:10.935Z,17.10
2017-09-19T17:06:38.388Z,17.10
2017-09-19T17:09:05.803Z,17.10
2017-09-19T17:11:33.982Z,17.00
2017-09-19T17:14:02.166Z,17.00
2017-09-19T17:16:30.370Z,16.80
2017-09-19T17:18:57.773Z,16.90
2017-09-19T17:21:25.872Z,16.60
2017-09-19T17:23:53.318Z,16.30
2017-09-19T17:26:21.494Z,15.90
2017-09-19T17:28:49.681Z,15.80
2017-09-19T17:31:17.119Z,15.70
2017-09-19T17:33:45.275Z,15.40
2017-09-19T17:36:13.463Z,15.30
2017-09-19T17:38:41.671Z,15.20
2017-09-19T17:41:09.079Z,15.20
2017-09-19T17:43:37.578Z,15.00
2017-09-19T17:46:05.786Z,14.90
2017-09-19T17:48:33.199Z,14.90
2017-09-19T17:51:01.376Z,14.80
2017-09-19T17:53:29.578Z,14.70
2017-09-19T17:55:57.003Z,14.70
2017-09-19T17:58:25.215Z,14.60
2017-09-19T18:00:52.635Z,14.60
2017-09-19T18:03:20.810Z,14.50
2017-09-19T18:05:49.000Z,14.40
2017-09-19T18:08:16.431Z,14.40
2017-09-19T18:10:43.846Z,14.40
2017-09-19T18:13:11.275Z,14.30
2017-09-19T18:15:38.698Z,14.20
2017-09-19T18:18:06.921Z,14.10
2017-09-19T18:20:34.336Z,14.10
2017-09-19T18:23:02.547Z,14.00
2017-09-19T18:25:29.972Z,14.00
2017-09-19T18:27:58.153Z,13.90
2017-09-19T18:30:26.344Z,13.90
2017-09-19T18:32:53.769Z,13.90
2017-09-19T18:35:21.176Z,13.80
2017-09-19T18:37:48.599Z,13.80
2017-09-19T18:40:16.028Z,13.80
2017-09-19T18:42:44.211Z,13.80
2017-09-19T18:45:12.394Z,13.70
2017-09-19T18:47:40.576Z,13.70
2017-09-19T18:50:07.998Z,13.70
2017-09-19T18:52:35.417Z,13.60
2017-09-19T18:55:02.827Z,13.60
2017-09-19T18:57:31.010Z,13.50
2017-09-19T18:59:58.419Z,13.50
2017-09-19T19:02:25.835Z,13.50
2017-09-19T19:04:53.258Z,13.50
2017-09-19T19:07:22.116Z,13.40
2017-09-19T19:09:49.727Z,13.40
2017-09-19T19:12:17.125Z,13.40
2017-09-19T19:14:44.539Z,13.40
2017-09-19T19:17:12.718Z,13.50
2017-09-19T19:19:40.142Z,13.50
2017-09-19T19:22:07.646Z,13.50
2017-09-19T19:24:35.074Z,13.50
2017-09-19T19:27:03.251Z,13.50
2017-09-19T19:29:31.452Z,13.50
2017-09-19T19:31:59.007Z,13.50
2017-09-19T19:34:26.429Z,13.50
2017-09-19T19:36:54.608Z,13.50
2017-09-19T19:39:22.788Z,13.50
2017-09-19T19:41:51.775Z,13.60
2017-09-19T19:44:19.955Z,13.60
2017-09-19T19:46:48.134Z,13.50
2017-09-19T19:49:15.713Z,13.50
2017-09-19T19:51:43.111Z,13.60
2017-09-19T19:54:10.624Z,13.60
2017-09-19T19:56:38.086Z,13.60
2017-09-19T19:59:05.535Z,13.50
2017-09-19T20:01:32.947Z,13.50
2017-09-19T20:04:01.774Z,13.60
2017-09-19T20:06:29.505Z,13.50
2017-09-19T20:08:57.679Z,13.60
2017-09-19T20:11:25.864Z,13.50
2017-09-19T20:13:54.056Z,13.50
2017-09-19T20:16:21.475Z,13.50
2017-09-19T20:18:49.767Z,13.50
2017-09-19T20:21:17.259Z,13.50
2017-09-19T20:23:45.535Z,13.50
2017-09-19T20:26:12.930Z,13.50
2017-09-19T20:28:40.348Z,13.50
2017-09-19T20:31:07.775Z,13.50
2017-09-19T20:33:35.351Z,13.40
2017-09-19T20:36:02.767Z,13.40
2017-09-19T20:38:30.275Z,13.50
2017-09-19T20:40:57.673Z,13.50
2017-09-19T20:43:26.596Z,13.40
2017-09-19T20:45:54.025Z,13.40
2017-09-19T20:48:21.527Z,13.40
2017-09-19T20:50:48.991Z,13.40
2017-09-19T20:53:17.059Z,13.40
2017-09-19T20:55:44.479Z,13.40
2017-09-19T20:58:12.655Z,13.30
2017-09-19T21:00:40.841Z,13.40
2017-09-19T21:03:08.371Z,13.30
2017-09-19T21:05:42.712Z,13.30
2017-09-19T21:08:16.586Z,13.30
2017-09-19T21:10:49.686Z,13.30
2017-09-19T21:13:23.491Z,13.30
2017-09-19T21:15:56.520Z,13.30
2017-09-19T21:18:29.714Z,13.30
2017-09-19T21:20:57.154Z,13.30
2017-09-19T21:23:24.568Z,13.30
2017-09-19T21:25:52.807Z,13.20
2017-09-19T21:28:20.231Z,13.20
2017-09-19T21:30:49.011Z,13.20
2017-09-19T21:33:17.215Z,13.10
2017-09-19T21:35:44.627Z,13.10
2017-09-19T21:38:12.245Z,13.10
2017-09-19T21:40:39.647Z,13.10
2017-09-19T21:43:07.147Z,13.10
2017-09-19T21:45:34.567Z,13.10
2017-09-19T21:48:02.742Z,13.20
2017-09-19T21:50:30.927Z,13.20
2017-09-19T21:52:59.110Z,13.20
2017-09-19T21:55:26.524Z,13.20
2017-09-19T21:57:53.942Z,13.20
2017-09-19T22:00:21.428Z,13.20
2017-09-19T22:02:48.836Z,13.10
2017-09-19T22:05:16.308Z,13.10
2017-09-19T22:07:43.764Z,13.10
2017-09-19T22:10:11.175Z,13.10
2017-09-19T22:12:39.371Z,13.00
2017-09-19T22:15:06.789Z,13.00
2017-09-19T22:17:35.718Z,13.00
2017-09-19T22:20:03.200Z,13.00
2017-09-19T22:22:30.622Z,13.00
2017-09-19T22:24:58.799Z,13.10
2017-09-19T22:27:26.984Z,13.00
2017-09-19T22:29:54.462Z,13.00
2017-09-19T22:32:21.919Z,13.10
2017-09-19T22:34:49.347Z,13.00
2017-09-19T22:37:17.264Z,13.00
2017-09-19T22:39:44.683Z,13.00
2017-09-19T22:42:12.107Z,13.00
2017-09-19T22:44:40.291Z,13.00
2017-09-19T22:47:08.502Z,13.00
2017-09-19T22:49:35.911Z,13.00
2017-09-19T22:52:04.388Z,13.00
2017-09-19T22:54:32.567Z,13.00
2017-09-19T22:57:00.755Z,12.90
2017-09-19T22:59:28.942Z,12.90
2017-09-19T23:01:56.363Z,12.90
2017-09-19T23:04:23.869Z,12.90
2017-09-19T23:06:51.282Z,12.90
2017-09-19T23:09:19.487Z,12.90
2017-09-19T23:11:46.912Z,12.90
2017-09-19T23:14:15.094Z,12.80
2017-09-19T23:16:43.286Z,12.80
2017-09-19T23:19:10.755Z,12.80
2017-09-19T23:21:38.182Z,12.80
2017-09-19T23:24:05.603Z,12.80
2017-09-19T23:26:33.023Z,12.80
2017-09-19T23:29:00.727Z,12.70
2017-09-19T23:31:28.244Z,12.70
2017-09-19T23:33:56.687Z,12.70
2017-09-19T23:36:24.866Z,12.60
2017-09-19T23:38:52.287Z,12.60
2017-09-19T23:41:19.707Z,12.60
2017-09-19T23:43:47.130Z,12.60
2017-09-19T23:46:15.315Z,12.60
2017-09-19T23:48:42.741Z,12.60
2017-09-19T23:51:10.854Z,12.60
2017-09-19T23:53:38.282Z,12.60
2017-09-19T23:56:06.497Z,12.60
2017-09-19T23:58:33.921Z,12.60
